createdAt,value
2023-03-28T00:01:26.313Z,0.27
2023-03-28T00:03:53.036Z,0.30
2023-03-28T00:06:20.748Z,0.20
2023-03-28T00:08:48.218Z,1.10
2023-03-28T00:11:20.270Z,0.00
2023-03-28T00:14:03.349Z,0.63
2023-03-28T00:16:33.195Z,0.33
2023-03-28T00:19:05.686Z,0.23
2023-03-28T00:21:35.300Z,0.30
2023-03-28T00:24:04.755Z,0.10
2023-03-28T00:26:34.278Z,0.47
2023-03-28T00:29:02.917Z,0.43
2023-03-28T00:31:31.001Z,0.10
2023-03-28T00:33:58.046Z,0.27
2023-03-28T00:36:29.488Z,0.10
2023-03-28T00:38:57.589Z,0.40
2023-03-28T00:41:26.503Z,0.10
2023-03-28T00:43:54.749Z,1.20
2023-03-28T00:46:42.064Z,0.40
2023-03-28T00:49:17.826Z,0.87
2023-03-28T00:51:52.944Z,0.00
2023-03-28T00:54:20.737Z,0.53
2023-03-28T00:56:52.164Z,0.33
2023-03-28T00:59:21.248Z,0.93
2023-03-28T01:01:49.135Z,0.60
2023-03-28T01:04:20.208Z,0.30
2023-03-28T01:06:51.703Z,1.20
2023-03-28T01:09:19.818Z,0.60
2023-03-28T01:11:46.946Z,0.30
2023-03-28T01:14:20.480Z,0.67
2023-03-28T01:16:48.323Z,0.00
2023-03-28T01:19:33.471Z,0.53
2023-03-28T01:22:08.874Z,0.10
2023-03-28T01:24:44.559Z,0.30
2023-03-28T01:27:41.743Z,0.00
2023-03-28T01:30:38.110Z,0.57
2023-03-28T01:33:17.828Z,0.33
2023-03-28T01:36:08.435Z,0.20
2023-03-28T01:38:42.140Z,0.40
2023-03-28T01:41:26.973Z,0.20
2023-03-28T01:44:12.620Z,0.70
2023-03-28T01:46:52.956Z,0.40
2023-03-28T01:49:41.905Z,0.57
2023-03-28T01:52:22.600Z,0.30
2023-03-28T01:54:59.305Z,0.23
2023-03-28T01:57:34.816Z,0.20
2023-03-28T02:00:20.093Z,0.17
2023-03-28T02:03:00.546Z,0.87
2023-03-28T02:05:30.426Z,0.07
2023-03-28T02:08:00.199Z,0.37
2023-03-28T02:10:29.341Z,0.50
2023-03-28T02:13:04.180Z,0.20
2023-03-28T02:15:32.621Z,0.30
2023-03-28T02:18:16.544Z,0.50
2023-03-28T02:20:45.348Z,0.20
2023-03-28T02:23:29.196Z,0.40
2023-03-28T02:25:55.924Z,0.10
2023-03-28T02:28:24.482Z,0.30
2023-03-28T02:30:51.673Z,0.47
2023-03-28T02:33:37.909Z,0.20
2023-03-28T02:36:25.716Z,0.20
2023-03-28T02:39:30.209Z,0.70
2023-03-28T02:42:15.437Z,0.10
2023-03-28T02:45:07.101Z,0.30
2023-03-28T02:48:00.276Z,0.30
2023-03-28T02:50:55.322Z,0.23
2023-03-28T02:53:59.379Z,0.37
2023-03-28T02:56:53.204Z,0.10
2023-03-28T02:59:34.019Z,0.20
2023-03-28T03:02:02.882Z,0.27
2023-03-28T03:04:29.445Z,0.83
2023-03-28T03:06:56.113Z,0.57
2023-03-28T03:09:22.965Z,0.43
2023-03-28T03:11:49.573Z,0.50
2023-03-28T03:14:16.188Z,0.00
2023-03-28T03:16:43.053Z,0.33
2023-03-28T03:19:09.678Z,0.40
2023-03-28T03:21:37.206Z,0.10
2023-03-28T03:24:04.318Z,0.30
2023-03-28T03:26:30.955Z,0.13
2023-03-28T03:28:57.525Z,0.10
2023-03-28T03:31:24.525Z,0.10
2023-03-28T03:33:51.208Z,0.30
2023-03-28T03:36:18.767Z,0.30
2023-03-28T03:38:45.338Z,1.17
2023-03-28T03:41:11.957Z,0.27
2023-03-28T03:43:38.507Z,0.27
2023-03-28T03:46:05.425Z,0.20
2023-03-28T03:48:32.272Z,0.27
2023-03-28T03:50:58.828Z,0.23
2023-03-28T03:53:25.772Z,0.63
2023-03-28T03:55:52.408Z,0.10
2023-03-28T03:58:20.526Z,0.23
2023-03-28T04:00:48.798Z,0.43
2023-03-28T04:03:25.120Z,0.30
2023-03-28T04:05:52.821Z,0.10
2023-03-28T04:08:19.398Z,0.37
2023-03-28T04:10:47.393Z,0.40
2023-03-28T04:13:14.052Z,0.77
2023-03-28T04:15:41.038Z,0.10
2023-03-28T04:18:09.722Z,0.10
2023-03-28T04:20:36.929Z,0.27
2023-03-28T04:23:05.938Z,0.50
2023-03-28T04:25:32.879Z,0.10
2023-03-28T04:28:01.726Z,0.53
2023-03-28T04:30:28.381Z,0.40
2023-03-28T04:32:54.998Z,0.10
2023-03-28T04:35:21.653Z,0.57
2023-03-28T04:37:49.139Z,0.30
2023-03-28T04:40:17.918Z,0.30
2023-03-28T04:42:44.577Z,0.50
2023-03-28T04:45:11.553Z,0.47
2023-03-28T04:47:39.770Z,0.70
2023-03-28T04:50:10.052Z,0.20
2023-03-28T04:52:36.706Z,0.17
2023-03-28T04:55:04.590Z,0.10
2023-03-28T04:57:31.306Z,0.40
2023-03-28T04:59:57.909Z,0.33
2023-03-28T05:02:24.546Z,0.40
2023-03-28T05:04:51.985Z,0.80
2023-03-28T05:07:18.533Z,1.20
2023-03-28T05:09:45.088Z,0.27
2023-03-28T05:12:11.641Z,0.47
2023-03-28T05:14:38.332Z,0.43
2023-03-28T05:17:04.906Z,0.30
2023-03-28T05:19:31.447Z,0.37
2023-03-28T05:21:58.034Z,0.10
2023-03-28T05:24:24.635Z,0.13
2023-03-28T05:26:51.171Z,0.30
2023-03-28T05:29:17.716Z,0.43
2023-03-28T05:31:44.312Z,0.17
2023-03-28T05:34:10.978Z,0.20
2023-03-28T05:36:37.526Z,0.30
2023-03-28T05:39:05.030Z,0.13
2023-03-28T05:41:31.642Z,0.57
2023-03-28T05:43:58.194Z,0.37
2023-03-28T05:46:24.811Z,0.60
2023-03-28T05:48:51.380Z,0.30
2023-03-28T05:51:17.978Z,0.67
2023-03-28T05:53:44.578Z,0.50
2023-03-28T05:56:11.143Z,0.50
2023-03-28T05:58:37.780Z,0.97
2023-03-28T06:01:06.053Z,0.63
2023-03-28T06:03:32.755Z,0.60
2023-03-28T06:06:00.013Z,0.70
2023-03-28T06:08:27.357Z,0.53
2023-03-28T06:10:53.989Z,0.40
2023-03-28T06:13:20.649Z,1.07
2023-03-28T06:15:47.485Z,0.70
2023-03-28T06:18:14.066Z,0.80
2023-03-28T06:20:40.653Z,1.03
2023-03-28T06:23:07.462Z,1.13
2023-03-28T06:25:34.053Z,1.53
2023-03-28T06:28:00.625Z,1.67
2023-03-28T06:30:27.384Z,2.17
2023-03-28T06:32:53.994Z,1.27
2023-03-28T06:35:20.959Z,1.20
2023-03-28T06:37:47.510Z,2.03
2023-03-28T06:40:14.329Z,1.30
2023-03-28T06:42:41.032Z,1.60
2023-03-28T06:45:08.185Z,0.90
2023-03-28T06:47:34.955Z,0.80
2023-03-28T06:50:01.618Z,1.23
2023-03-28T06:52:28.242Z,1.33
2023-03-28T06:54:54.853Z,1.07
2023-03-28T06:57:21.469Z,0.90
2023-03-28T06:59:48.118Z,0.97
2023-03-28T07:02:14.945Z,0.90
2023-03-28T07:04:41.488Z,0.80
2023-03-28T07:07:09.223Z,0.90
2023-03-28T07:09:36.642Z,0.93
2023-03-28T07:12:04.205Z,0.87
2023-03-28T07:14:30.846Z,1.30
2023-03-28T07:16:57.628Z,0.97
2023-03-28T07:19:24.703Z,0.93
2023-03-28T07:21:52.848Z,0.80
2023-03-28T07:24:19.762Z,1.20
2023-03-28T07:26:46.432Z,1.07
2023-03-28T07:29:13.058Z,1.30
2023-03-28T07:31:39.674Z,1.07
2023-03-28T07:34:06.383Z,1.77
2023-03-28T07:36:32.966Z,1.10
2023-03-28T07:38:59.519Z,0.90
2023-03-28T07:41:26.348Z,0.93
2023-03-28T07:43:52.940Z,1.13
2023-03-28T07:46:20.777Z,1.03
2023-03-28T07:48:47.559Z,1.00
2023-03-28T07:51:14.626Z,0.60
2023-03-28T07:53:41.403Z,1.00
2023-03-28T07:56:12.466Z,1.30
2023-03-28T07:58:40.832Z,1.30
2023-03-28T08:01:09.837Z,0.90
2023-03-28T08:03:37.091Z,1.10
2023-03-28T08:06:13.780Z,0.97
2023-03-28T08:08:47.019Z,1.03
2023-03-28T08:11:13.580Z,0.93
2023-03-28T08:13:40.278Z,0.90
2023-03-28T08:16:07.433Z,1.37
2023-03-28T08:18:34.297Z,1.07
2023-03-28T08:21:02.911Z,1.10
2023-03-28T08:23:30.448Z,1.27
2023-03-28T08:26:05.885Z,1.43
2023-03-28T08:28:33.994Z,1.10
2023-03-28T08:31:01.822Z,1.33
2023-03-28T08:33:32.701Z,1.02
2023-03-28T08:35:59.327Z,1.38
2023-03-28T08:38:25.962Z,1.35
2023-03-28T08:41:17.703Z,1.30
2023-03-28T08:43:59.280Z,1.30
2023-03-28T08:46:28.188Z,1.13
2023-03-28T08:48:55.668Z,1.13
2023-03-28T08:51:26.030Z,1.30
2023-03-28T08:54:14.375Z,1.40
2023-03-28T08:56:45.780Z,1.15
2023-03-28T08:59:15.848Z,1.05
2023-03-28T09:01:43.577Z,1.15
2023-03-28T09:04:29.138Z,1.10
2023-03-28T09:07:08.440Z,1.35
2023-03-28T09:09:48.957Z,1.15
2023-03-28T09:12:26.436Z,1.15
2023-03-28T09:15:12.077Z,1.38
2023-03-28T09:18:10.822Z,1.40
2023-03-28T09:20:45.573Z,1.20
2023-03-28T09:23:56.145Z,1.20
2023-03-28T09:26:32.298Z,1.10
2023-03-28T09:29:04.681Z,0.98
2023-03-28T09:31:37.596Z,1.10
2023-03-28T09:34:06.969Z,1.17
2023-03-28T09:36:48.405Z,1.23
2023-03-28T09:39:28.187Z,1.10
2023-03-28T09:42:07.804Z,1.02
2023-03-28T09:44:52.958Z,0.95
2023-03-28T09:47:20.656Z,1.00
2023-03-28T09:49:47.405Z,1.00
2023-03-28T09:52:21.448Z,1.20
2023-03-28T09:54:48.796Z,0.82
2023-03-28T09:57:15.647Z,1.00
2023-03-28T09:59:42.932Z,1.40
2023-03-28T10:02:32.793Z,1.13
2023-03-28T10:04:59.673Z,1.40
2023-03-28T10:07:44.168Z,1.08
2023-03-28T10:10:19.700Z,0.82
2023-03-28T10:12:48.865Z,1.25
2023-03-28T10:15:45.582Z,1.30
2023-03-28T10:18:18.298Z,0.90
2023-03-28T10:20:45.510Z,1.00
2023-03-28T10:23:13.658Z,1.00
2023-03-28T10:25:44.252Z,1.33
2023-03-28T10:28:20.841Z,0.97
2023-03-28T10:30:57.248Z,0.83
2023-03-28T10:33:27.817Z,0.80
2023-03-28T10:35:57.736Z,0.77
2023-03-28T10:38:30.749Z,0.97
2023-03-28T10:41:07.605Z,0.70
2023-03-28T10:43:38.110Z,0.90
2023-03-28T10:46:17.476Z,1.00
2023-03-28T10:49:08.208Z,0.80
2023-03-28T10:51:37.946Z,0.87
2023-03-28T10:54:19.599Z,0.80
2023-03-28T10:57:12.623Z,1.00
2023-03-28T10:59:54.511Z,0.90
2023-03-28T11:02:53.124Z,0.67
2023-03-28T11:05:43.053Z,0.50
2023-03-28T11:08:35.395Z,0.50
2023-03-28T11:11:28.012Z,1.27
2023-03-28T11:13:57.525Z,0.93
2023-03-28T11:17:00.745Z,1.10
2023-03-28T11:19:55.310Z,1.13
2023-03-28T11:23:04.641Z,0.70
2023-03-28T11:26:06.552Z,0.83
2023-03-28T11:28:54.270Z,0.67
2023-03-28T11:31:29.259Z,1.00
2023-03-28T11:34:09.613Z,0.70
2023-03-28T11:36:55.380Z,1.33
2023-03-28T11:39:38.831Z,0.90
2023-03-28T11:42:11.156Z,0.90
2023-03-28T11:44:48.735Z,0.90
2023-03-28T11:47:27.844Z,0.90
2023-03-28T11:49:58.678Z,1.10
2023-03-28T11:52:44.796Z,0.80
2023-03-28T11:55:21.904Z,0.90
2023-03-28T11:57:58.884Z,0.70
2023-03-28T12:00:34.666Z,1.10
2023-03-28T12:03:10.494Z,0.90
2023-03-28T12:05:43.672Z,0.93
2023-03-28T12:08:17.049Z,0.80
2023-03-28T12:10:49.342Z,0.90
2023-03-28T12:13:35.956Z,0.70
2023-03-28T12:16:09.903Z,1.00
2023-03-28T12:18:58.486Z,0.60
2023-03-28T12:21:45.100Z,0.80
2023-03-28T12:24:41.540Z,1.00
2023-03-28T12:27:10.959Z,1.03
2023-03-28T12:29:56.633Z,1.07
2023-03-28T12:32:48.106Z,0.70
2023-03-28T12:35:26.408Z,0.60
2023-03-28T12:38:14.287Z,0.73
2023-03-28T12:41:01.739Z,0.47
2023-03-28T12:43:41.014Z,0.80
2023-03-28T12:46:08.586Z,0.87
2023-03-28T12:49:03.449Z,0.70
2023-03-28T12:51:40.541Z,0.70
2023-03-28T12:54:15.234Z,0.80
2023-03-28T12:56:59.433Z,0.60
2023-03-28T12:59:38.319Z,0.70
2023-03-28T13:02:44.495Z,0.63
2023-03-28T13:05:12.478Z,0.70
2023-03-28T13:08:18.879Z,0.57
2023-03-28T13:11:13.448Z,0.90
2023-03-28T13:13:53.641Z,0.80
2023-03-28T13:16:45.440Z,0.60
2023-03-28T13:19:16.418Z,0.80
2023-03-28T13:21:55.174Z,0.83
2023-03-28T13:24:24.752Z,0.77
2023-03-28T13:27:07.635Z,0.80
2023-03-28T13:29:49.716Z,0.90
2023-03-28T13:32:23.489Z,0.80
2023-03-28T13:34:54.363Z,0.87
2023-03-28T13:37:23.642Z,0.93
2023-03-28T13:39:59.024Z,1.03
2023-03-28T13:42:28.095Z,1.50
2023-03-28T13:44:59.378Z,0.83
2023-03-28T13:47:40.614Z,1.17
2023-03-28T13:50:22.110Z,1.10
2023-03-28T13:52:48.773Z,1.00
2023-03-28T13:55:23.857Z,0.80
2023-03-28T13:57:52.181Z,0.70
2023-03-28T14:00:23.646Z,1.03
2023-03-28T14:02:52.857Z,1.30
2023-03-28T14:05:26.146Z,1.37
2023-03-28T14:07:55.526Z,0.83
2023-03-28T14:10:32.383Z,1.20
2023-03-28T14:13:13.471Z,1.27
2023-03-28T14:15:40.956Z,1.30
2023-03-28T14:18:16.310Z,0.90
2023-03-28T14:20:44.821Z,1.00
2023-03-28T14:23:32.922Z,0.90
2023-03-28T14:26:02.378Z,1.03
2023-03-28T14:28:30.856Z,0.97
2023-03-28T14:30:58.368Z,1.10
2023-03-28T14:33:25.229Z,1.13
2023-03-28T14:36:04.329Z,1.10
2023-03-28T14:38:34.582Z,1.10
2023-03-28T14:41:08.712Z,0.83
2023-03-28T14:43:36.644Z,1.13
2023-03-28T14:46:07.871Z,0.90
2023-03-28T14:48:35.682Z,0.80
2023-03-28T14:51:03.897Z,1.10
2023-03-28T14:53:36.777Z,0.97
2023-03-28T14:56:11.012Z,1.20
2023-03-28T14:58:41.603Z,1.10
2023-03-28T15:01:11.072Z,1.00
2023-03-28T15:03:46.312Z,1.13
2023-03-28T15:06:17.998Z,1.30
2023-03-28T15:08:45.518Z,0.90
2023-03-28T15:11:26.345Z,1.10
2023-03-28T15:14:02.287Z,0.90
2023-03-28T15:16:30.528Z,1.10
2023-03-28T15:19:06.689Z,0.93
2023-03-28T15:21:38.976Z,0.77
2023-03-28T15:24:07.856Z,1.37
2023-03-28T15:26:43.929Z,1.20
2023-03-28T15:29:17.828Z,1.40
2023-03-28T15:31:45.296Z,1.20
2023-03-28T15:34:23.609Z,1.10
2023-03-28T15:36:55.876Z,1.23
2023-03-28T15:39:26.068Z,1.00
2023-03-28T15:42:28.922Z,1.20
2023-03-28T15:44:58.513Z,1.03
2023-03-28T15:47:31.136Z,1.00
2023-03-28T15:50:36.839Z,0.80
2023-03-28T15:53:07.211Z,1.00
2023-03-28T15:55:34.645Z,0.90
2023-03-28T15:58:03.777Z,0.90
2023-03-28T16:00:39.488Z,0.83
2023-03-28T16:03:21.278Z,1.13
2023-03-28T16:05:49.790Z,0.90
2023-03-28T16:08:30.864Z,0.90
2023-03-28T16:10:58.663Z,1.03
2023-03-28T16:13:25.566Z,0.97
2023-03-28T16:15:52.656Z,1.40
2023-03-28T16:18:20.633Z,1.07
2023-03-28T16:20:47.432Z,1.07
2023-03-28T16:23:14.727Z,1.20
2023-03-28T16:25:42.788Z,1.40
2023-03-28T16:28:17.152Z,1.17
2023-03-28T16:30:44.076Z,1.20
2023-03-28T16:33:10.786Z,1.27
2023-03-28T16:35:37.999Z,1.27
2023-03-28T16:38:05.241Z,1.33
2023-03-28T16:40:31.961Z,1.37
2023-03-28T16:42:58.595Z,1.40
2023-03-28T16:45:25.385Z,1.00
2023-03-28T16:47:52.491Z,1.07
2023-03-28T16:50:19.267Z,1.23
2023-03-28T16:52:45.836Z,1.13
2023-03-28T16:55:15.292Z,1.00
2023-03-28T16:57:42.456Z,1.10
2023-03-28T17:00:11.752Z,1.40
2023-03-28T17:02:38.864Z,1.30
2023-03-28T17:05:06.271Z,1.20
2023-03-28T17:07:33.063Z,1.23
2023-03-28T17:09:59.649Z,1.10
2023-03-28T17:12:26.423Z,0.93
2023-03-28T17:14:53.006Z,1.17
2023-03-28T17:17:20.261Z,1.13
2023-03-28T17:19:46.836Z,1.30
2023-03-28T17:22:13.399Z,1.07
2023-03-28T17:24:39.996Z,1.63
2023-03-28T17:27:07.004Z,1.20
2023-03-28T17:29:33.764Z,0.97
2023-03-28T17:32:02.705Z,1.57
2023-03-28T17:34:31.899Z,1.50
2023-03-28T17:36:59.373Z,1.10
2023-03-28T17:39:26.119Z,1.30
2023-03-28T17:41:52.832Z,1.40
2023-03-28T17:44:19.495Z,1.10
2023-03-28T17:46:47.063Z,1.30
2023-03-28T17:49:15.224Z,1.30
2023-03-28T17:51:44.032Z,1.63
2023-03-28T17:54:11.984Z,1.60
2023-03-28T17:56:39.744Z,1.90
2023-03-28T17:59:06.683Z,1.93
2023-03-28T18:01:33.470Z,1.60
2023-03-28T18:04:00.151Z,1.83
2023-03-28T18:06:27.209Z,2.00
2023-03-28T18:08:53.940Z,2.23
2023-03-28T18:11:20.782Z,1.60
2023-03-28T18:13:47.426Z,1.53
2023-03-28T18:16:15.524Z,1.97
2023-03-28T18:18:42.114Z,1.60
2023-03-28T18:21:11.027Z,1.80
2023-03-28T18:23:37.605Z,1.67
2023-03-28T18:26:04.668Z,1.77
2023-03-28T18:28:31.501Z,1.87
2023-03-28T18:31:10.855Z,1.87
2023-03-28T18:33:38.473Z,2.17
2023-03-28T18:36:05.656Z,1.70
2023-03-28T18:38:42.202Z,2.17
2023-03-28T18:41:10.602Z,2.57
2023-03-28T18:43:38.616Z,1.83
2023-03-28T18:46:07.569Z,1.60
2023-03-28T18:48:35.313Z,1.57
2023-03-28T18:51:08.548Z,1.93
2023-03-28T18:53:39.840Z,1.73
2023-03-28T18:56:07.923Z,1.73
2023-03-28T18:58:37.033Z,1.80
2023-03-28T19:01:04.024Z,2.00
2023-03-28T19:03:32.913Z,1.80
2023-03-28T19:06:01.357Z,2.40
2023-03-28T19:08:29.693Z,1.47
2023-03-28T19:10:58.227Z,2.07
2023-03-28T19:13:25.622Z,1.80
2023-03-28T19:16:00.167Z,1.40
2023-03-28T19:18:27.254Z,1.30
2023-03-28T19:20:55.492Z,1.23
2023-03-28T19:23:22.914Z,1.37
2023-03-28T19:25:49.694Z,1.40
2023-03-28T19:28:17.960Z,1.63
2023-03-28T19:30:45.393Z,1.77
2023-03-28T19:33:12.660Z,1.13
2023-03-28T19:35:39.975Z,1.47
2023-03-28T19:38:06.965Z,1.20
2023-03-28T19:40:33.591Z,1.43
2023-03-28T19:43:00.667Z,1.47
2023-03-28T19:45:29.031Z,1.37
2023-03-28T19:47:56.564Z,1.17
2023-03-28T19:50:23.741Z,0.73
2023-03-28T19:52:50.860Z,1.23
2023-03-28T19:55:18.243Z,1.37
2023-03-28T19:57:44.884Z,1.43
2023-03-28T20:00:12.075Z,1.07
2023-03-28T20:02:38.844Z,0.90
2023-03-28T20:05:06.131Z,0.87
2023-03-28T20:07:32.762Z,1.30
2023-03-28T20:09:59.684Z,1.10
2023-03-28T20:12:26.286Z,0.83
2023-03-28T20:14:54.453Z,0.97
2023-03-28T20:17:22.929Z,1.40
2023-03-28T20:19:52.523Z,1.17
2023-03-28T20:22:19.978Z,0.90
2023-03-28T20:24:48.609Z,1.50
2023-03-28T20:27:16.328Z,1.03
2023-03-28T20:29:42.904Z,1.00
2023-03-28T20:32:10.461Z,0.80
2023-03-28T20:34:37.127Z,1.13
2023-03-28T20:37:03.689Z,0.80
2023-03-28T20:39:33.997Z,0.90
2023-03-28T20:42:05.291Z,1.37
2023-03-28T20:44:37.869Z,1.60
2023-03-28T20:47:08.724Z,1.00
2023-03-28T20:49:35.950Z,1.10
2023-03-28T20:52:02.625Z,1.40
2023-03-28T20:54:29.416Z,1.33
2023-03-28T20:56:56.164Z,1.40
2023-03-28T20:59:23.701Z,1.20
2023-03-28T21:01:51.322Z,1.63
2023-03-28T21:04:17.907Z,1.67
2023-03-28T21:06:44.949Z,1.07
2023-03-28T21:09:15.511Z,1.07
2023-03-28T21:11:43.741Z,1.30
2023-03-28T21:14:13.338Z,0.97
2023-03-28T21:16:40.796Z,1.03
2023-03-28T21:19:07.689Z,1.27
2023-03-28T21:21:34.718Z,0.80
2023-03-28T21:24:02.346Z,1.40
2023-03-28T21:26:29.406Z,1.20
2023-03-28T21:28:56.081Z,0.90
2023-03-28T21:31:25.675Z,1.00
2023-03-28T21:33:55.351Z,0.83
2023-03-28T21:36:22.264Z,1.20
2023-03-28T21:38:49.304Z,1.20
2023-03-28T21:41:16.683Z,1.00
2023-03-28T21:43:43.393Z,1.20
2023-03-28T21:46:11.287Z,1.23
2023-03-28T21:48:38.293Z,0.90
2023-03-28T21:51:05.495Z,1.07
2023-03-28T21:53:37.257Z,0.90
2023-03-28T21:56:04.933Z,1.30
2023-03-28T21:58:33.211Z,1.40
2023-03-28T22:01:01.856Z,1.30
2023-03-28T22:03:29.098Z,0.93
2023-03-28T22:05:55.989Z,1.13
2023-03-28T22:08:23.263Z,1.13
2023-03-28T22:10:56.551Z,1.57
2023-03-28T22:13:23.749Z,1.10
2023-03-28T22:15:52.273Z,1.03
2023-03-28T22:18:19.455Z,1.40
2023-03-28T22:20:49.482Z,1.27
2023-03-28T22:23:16.058Z,1.20
2023-03-28T22:25:42.638Z,1.63
2023-03-28T22:28:10.512Z,1.03
2023-03-28T22:30:41.270Z,1.47
2023-03-28T22:33:10.500Z,1.23
2023-03-28T22:35:38.001Z,1.10
2023-03-28T22:38:05.209Z,1.43
2023-03-28T22:40:32.281Z,1.03
2023-03-28T22:42:58.974Z,1.23
2023-03-28T22:45:26.670Z,1.23
2023-03-28T22:47:54.216Z,0.87
2023-03-28T22:50:21.995Z,1.40
2023-03-28T22:52:52.485Z,0.70
2023-03-28T22:55:22.326Z,0.80
2023-03-28T22:57:51.555Z,0.90
2023-03-28T23:00:23.195Z,1.27
2023-03-28T23:02:51.725Z,1.20
2023-03-28T23:05:19.422Z,1.33
2023-03-28T23:07:46.152Z,1.20
2023-03-28T23:10:16.002Z,1.23
2023-03-28T23:12:43.485Z,0.93
2023-03-28T23:15:10.995Z,1.50
2023-03-28T23:17:38.270Z,1.27
2023-03-28T23:20:13.100Z,1.40
2023-03-28T23:22:41.593Z,1.60
2023-03-28T23:25:09.003Z,1.13
2023-03-28T23:27:35.696Z,1.27
2023-03-28T23:30:02.928Z,1.03
2023-03-28T23:32:29.525Z,1.20
2023-03-28T23:34:56.523Z,1.30
2023-03-28T23:37:27.483Z,1.10
2023-03-28T23:39:55.375Z,1.37
2023-03-28T23:42:23.174Z,0.83
2023-03-28T23:44:50.078Z,1.40
2023-03-28T23:47:18.017Z,1.73
2023-03-28T23:49:44.656Z,1.00
2023-03-28T23:52:12.710Z,1.50
2023-03-28T23:54:39.884Z,1.30
2023-03-28T23:57:07.212Z,1.67
2023-03-28T23:59:33.995Z,1.30
